createdAt,value
2018-04-24T00:00:35.156Z,19.23
2018-04-24T00:03:03.375Z,19.50
2018-04-24T00:05:32.400Z,18.83
2018-04-24T00:08:00.695Z,19.80
2018-04-24T00:10:29.024Z,18.47
2018-04-24T00:12:57.336Z,18.80
2018-04-24T00:15:25.579Z,18.93
2018-04-24T00:17:54.549Z,21.23
2018-04-24T00:20:24.452Z,20.60
2018-04-24T00:22:52.660Z,23.50
2018-04-24T00:25:20.960Z,23.30
2018-04-24T00:27:49.243Z,25.03
2018-04-24T00:30:17.467Z,27.53
2018-04-24T00:32:45.757Z,24.83
2018-04-24T00:35:14.895Z,25.43
2018-04-24T00:37:43.259Z,25.57
2018-04-24T00:40:11.551Z,27.67
2018-04-24T00:42:39.892Z,24.17
2018-04-24T00:45:08.905Z,23.87
2018-04-24T00:47:37.139Z,26.83
2018-04-24T00:50:05.472Z,23.90
2018-04-24T00:52:33.684Z,25.37
2018-04-24T00:55:01.930Z,27.17
2018-04-24T00:57:30.303Z,26.87
2018-04-24T00:59:58.507Z,25.60
2018-04-24T01:02:26.762Z,24.00
2018-04-24T01:04:55.030Z,24.40
2018-04-24T01:07:23.239Z,24.37
2018-04-24T01:09:51.512Z,25.93
2018-04-24T01:12:19.858Z,22.87
2018-04-24T01:14:48.073Z,23.37
2018-04-24T01:17:16.347Z,25.63
2018-04-24T01:19:44.696Z,25.53
2018-04-24T01:22:13.051Z,28.13
2018-04-24T01:24:41.351Z,24.93
2018-04-24T01:27:09.633Z,25.13
2018-04-24T01:29:37.891Z,26.87
2018-04-24T01:32:06.204Z,23.83
2018-04-24T01:34:35.958Z,25.13
2018-04-24T01:37:04.951Z,26.00
2018-04-24T01:39:34.044Z,25.47
2018-04-24T01:42:02.428Z,26.00
2018-04-24T01:44:31.452Z,23.47
2018-04-24T01:46:59.761Z,24.83
2018-04-24T01:49:28.791Z,25.10
2018-04-24T01:51:57.804Z,25.17
2018-04-24T01:54:26.017Z,25.30
2018-04-24T01:56:56.872Z,25.90
2018-04-24T01:59:25.783Z,26.63
2018-04-24T02:01:54.023Z,27.10
2018-04-24T02:04:22.824Z,25.57
2018-04-24T02:06:51.047Z,25.17
2018-04-24T02:09:19.435Z,25.40
2018-04-24T02:11:47.795Z,24.43
2018-04-24T02:14:16.005Z,25.93
2018-04-24T02:16:44.499Z,26.60
2018-04-24T02:19:13.967Z,26.77
2018-04-24T02:21:42.279Z,27.00
2018-04-24T02:24:11.974Z,26.83
2018-04-24T02:26:40.204Z,24.43
2018-04-24T02:29:08.476Z,23.80
2018-04-24T02:31:36.784Z,25.00
2018-04-24T02:34:05.081Z,26.53
2018-04-24T02:36:33.378Z,24.60
2018-04-24T02:39:01.597Z,28.93
2018-04-24T02:41:32.555Z,27.60
2018-04-24T02:44:00.927Z,26.90
2018-04-24T02:46:29.616Z,26.10
2018-04-24T02:48:58.696Z,27.80
2018-04-24T02:51:26.986Z,29.53
2018-04-24T02:53:55.216Z,27.83
2018-04-24T02:56:23.524Z,32.07
2018-04-24T02:58:51.907Z,29.97
2018-04-24T03:01:20.948Z,31.10
2018-04-24T03:03:49.257Z,30.20
2018-04-24T03:06:17.466Z,26.80
2018-04-24T03:08:45.759Z,30.27
2018-04-24T03:11:14.051Z,29.83
2018-04-24T03:13:42.311Z,29.27
2018-04-24T03:16:10.568Z,31.13
2018-04-24T03:18:38.853Z,28.90
2018-04-24T03:21:07.057Z,30.53
2018-04-24T03:23:35.347Z,29.27
2018-04-24T03:26:03.775Z,28.03
2018-04-24T03:28:31.997Z,32.63
2018-04-24T03:31:00.266Z,27.87
2018-04-24T03:33:29.775Z,31.00
2018-04-24T03:35:58.003Z,30.87
2018-04-24T03:38:26.279Z,31.73
2018-04-24T03:40:55.374Z,33.17
2018-04-24T03:43:24.459Z,35.10
2018-04-24T03:45:52.669Z,34.10
2018-04-24T03:48:20.920Z,31.97
2018-04-24T03:50:49.958Z,31.43
2018-04-24T03:53:18.156Z,31.33
2018-04-24T03:55:46.391Z,30.33
2018-04-24T03:58:14.656Z,32.97
2018-04-24T04:00:42.882Z,32.13
2018-04-24T04:03:11.158Z,30.83
2018-04-24T04:05:39.405Z,34.43
2018-04-24T04:08:07.746Z,32.53
2018-04-24T04:10:36.839Z,33.90
2018-04-24T04:13:05.922Z,33.73
2018-04-24T04:15:34.183Z,33.90
2018-04-24T04:18:14.255Z,32.80
2018-04-24T04:20:54.360Z,34.27
2018-04-24T04:23:34.516Z,34.97
2018-04-24T04:26:02.799Z,35.53
2018-04-24T04:28:31.310Z,34.67
2018-04-24T04:31:00.800Z,33.37
2018-04-24T04:33:29.036Z,37.50
2018-04-24T04:35:57.276Z,34.87
2018-04-24T04:38:25.678Z,35.20
2018-04-24T04:40:54.089Z,32.57
2018-04-24T04:43:22.299Z,34.80
2018-04-24T04:45:50.539Z,33.20
2018-04-24T04:48:18.767Z,32.17
2018-04-24T04:50:46.978Z,31.03
2018-04-24T04:53:15.232Z,33.20
2018-04-24T04:55:44.315Z,33.57
2018-04-24T04:58:12.528Z,34.47
2018-04-24T05:00:41.415Z,31.93
2018-04-24T05:03:09.631Z,32.10
2018-04-24T05:05:37.983Z,31.20
2018-04-24T05:08:06.535Z,31.30
2018-04-24T05:10:35.605Z,29.63
2018-04-24T05:13:03.831Z,32.13
2018-04-24T05:15:32.254Z,31.00
2018-04-24T05:18:00.596Z,29.57
2018-04-24T05:20:28.887Z,28.60
2018-04-24T05:22:57.141Z,30.70
2018-04-24T05:25:25.589Z,27.90
2018-04-24T05:27:55.073Z,29.87
2018-04-24T05:30:23.649Z,32.17
2018-04-24T05:32:52.105Z,26.83
2018-04-24T05:35:20.551Z,27.07
2018-04-24T05:37:48.846Z,26.47
2018-04-24T05:40:17.143Z,26.13
2018-04-24T05:42:45.463Z,26.00
2018-04-24T05:45:13.766Z,27.00
2018-04-24T05:47:41.952Z,26.97
2018-04-24T05:50:10.163Z,23.50
2018-04-24T05:52:38.442Z,25.40
2018-04-24T05:55:07.732Z,26.07
2018-04-24T05:57:35.960Z,25.07
2018-04-24T06:00:05.055Z,26.37
2018-04-24T06:02:34.090Z,27.03
2018-04-24T06:05:03.316Z,25.93
2018-04-24T06:07:31.711Z,25.40
2018-04-24T06:10:00.688Z,23.97
2018-04-24T06:12:29.145Z,24.20
2018-04-24T06:14:58.255Z,25.03
2018-04-24T06:17:26.468Z,26.30
2018-04-24T06:19:54.675Z,24.63
2018-04-24T06:22:23.259Z,24.13
2018-04-24T06:24:51.700Z,21.70
2018-04-24T06:27:20.741Z,20.80
2018-04-24T06:29:49.029Z,20.13
2018-04-24T06:32:17.489Z,20.30
2018-04-24T06:34:45.771Z,22.13
2018-04-24T06:37:14.083Z,21.20
2018-04-24T06:39:42.371Z,21.37
2018-04-24T06:42:10.712Z,20.43
2018-04-24T06:44:40.204Z,20.60
2018-04-24T06:47:08.488Z,20.30
2018-04-24T06:49:36.824Z,20.80
2018-04-24T06:52:05.028Z,21.03
2018-04-24T06:54:34.027Z,19.77
2018-04-24T06:57:02.223Z,18.83
2018-04-24T06:59:30.527Z,20.40
2018-04-24T07:01:58.999Z,20.23
2018-04-24T07:04:27.439Z,21.57
2018-04-24T07:06:55.740Z,20.17
2018-04-24T07:09:23.989Z,20.57
2018-04-24T07:11:52.296Z,22.73
2018-04-24T07:14:20.699Z,24.10
2018-04-24T07:16:49.051Z,22.53
2018-04-24T07:19:17.311Z,23.13
2018-04-24T07:21:45.619Z,24.83
2018-04-24T07:24:13.999Z,23.97
2018-04-24T07:26:42.233Z,22.83
2018-04-24T07:29:11.743Z,20.20
2018-04-24T07:31:39.963Z,18.13
2018-04-24T07:34:08.672Z,16.57
2018-04-24T07:36:37.827Z,16.87
2018-04-24T07:39:06.166Z,16.63
2018-04-24T07:41:34.387Z,13.40
2018-04-24T07:44:02.668Z,13.17
2018-04-24T07:46:31.061Z,14.63
2018-04-24T07:48:59.378Z,15.37
2018-04-24T07:51:27.998Z,14.57
2018-04-24T07:53:56.287Z,15.70
2018-04-24T07:56:24.512Z,14.93
2018-04-24T07:58:52.735Z,15.47
2018-04-24T08:01:20.984Z,13.07
2018-04-24T08:03:49.975Z,12.23
2018-04-24T08:06:18.209Z,11.90
2018-04-24T08:08:47.288Z,11.40
2018-04-24T08:11:15.509Z,11.23
2018-04-24T08:13:43.881Z,10.93
2018-04-24T08:16:12.136Z,10.63
2018-04-24T08:18:41.148Z,10.50
2018-04-24T08:21:09.355Z,11.23
2018-04-24T08:23:37.675Z,10.03
2018-04-24T08:26:05.955Z,8.77
2018-04-24T08:28:34.268Z,8.30
2018-04-24T08:31:02.661Z,7.63
2018-04-24T08:33:30.913Z,7.13
2018-04-24T08:36:01.260Z,7.10
2018-04-24T08:38:29.454Z,8.27
2018-04-24T08:40:57.648Z,8.70
2018-04-24T08:43:25.987Z,8.30
2018-04-24T08:45:54.381Z,8.03
2018-04-24T08:48:22.679Z,8.10
2018-04-24T08:50:52.178Z,7.43
2018-04-24T08:53:20.444Z,7.77
2018-04-24T08:55:48.675Z,7.50
2018-04-24T08:58:17.695Z,7.50
2018-04-24T09:00:45.967Z,7.83
2018-04-24T09:03:14.259Z,7.70
2018-04-24T09:05:42.654Z,7.47
2018-04-24T09:08:10.894Z,7.30
2018-04-24T09:10:39.255Z,7.63
2018-04-24T09:13:07.513Z,7.43
2018-04-24T09:15:35.724Z,7.80
2018-04-24T09:18:04.763Z,7.60
2018-04-24T09:20:33.239Z,7.47
2018-04-24T09:23:01.581Z,7.87
2018-04-24T09:25:29.851Z,6.73
2018-04-24T09:27:58.156Z,7.20
2018-04-24T09:30:26.431Z,7.17
2018-04-24T09:32:54.615Z,6.10
2018-04-24T09:35:27.742Z,6.80
2018-04-24T09:37:56.892Z,6.40
2018-04-24T09:40:25.128Z,6.80
2018-04-24T09:42:54.221Z,6.37
2018-04-24T09:45:22.501Z,5.90
2018-04-24T09:47:51.481Z,7.47
2018-04-24T09:50:19.712Z,7.10
2018-04-24T09:52:47.929Z,7.60
2018-04-24T09:55:16.355Z,6.80
2018-04-24T09:57:44.790Z,6.30
2018-04-24T10:00:13.065Z,6.13
2018-04-24T10:02:41.547Z,5.97
2018-04-24T10:05:10.055Z,5.90
2018-04-24T10:07:39.520Z,5.83
2018-04-24T10:10:07.808Z,5.93
2018-04-24T10:12:36.240Z,5.87
2018-04-24T10:15:04.524Z,6.00
2018-04-24T10:17:32.747Z,5.70
2018-04-24T10:20:00.975Z,5.50
2018-04-24T10:22:29.211Z,5.30
2018-04-24T10:24:57.468Z,5.43
2018-04-24T10:27:25.844Z,5.90
2018-04-24T10:29:54.078Z,6.27
2018-04-24T10:32:22.353Z,6.33
2018-04-24T10:34:50.660Z,5.60
2018-04-24T10:37:20.756Z,5.53
2018-04-24T10:39:49.074Z,5.07
2018-04-24T10:42:17.704Z,5.70
2018-04-24T10:44:45.978Z,6.53
2018-04-24T10:49:49.001Z,5.23
2018-04-24T10:52:17.365Z,6.27
2018-04-24T10:54:46.445Z,5.43
2018-04-24T10:57:14.812Z,5.70
2018-04-24T10:59:43.907Z,6.37
2018-04-24T11:02:12.201Z,6.80
2018-04-24T11:04:40.432Z,6.80
2018-04-24T11:07:08.715Z,6.93
2018-04-24T11:09:38.388Z,6.53
2018-04-24T11:12:06.881Z,6.13
2018-04-24T11:14:35.222Z,7.03
2018-04-24T11:17:03.408Z,7.17
2018-04-24T11:19:31.728Z,6.80
2018-04-24T11:22:00.120Z,8.10
2018-04-24T11:24:28.364Z,7.17
2018-04-24T11:26:56.897Z,6.90
2018-04-24T11:29:25.888Z,8.07
2018-04-24T11:31:55.141Z,7.73
2018-04-24T11:34:25.999Z,7.40
2018-04-24T11:36:54.235Z,7.77
2018-04-24T11:39:22.488Z,7.93
2018-04-24T11:41:50.825Z,8.23
2018-04-24T11:44:19.105Z,7.90
2018-04-24T11:46:47.332Z,7.37
2018-04-24T11:49:15.551Z,7.07
2018-04-24T11:51:43.809Z,6.93
2018-04-24T11:54:12.053Z,7.30
2018-04-24T11:56:41.056Z,6.47
2018-04-24T11:59:09.417Z,6.03
2018-04-24T12:01:37.920Z,6.40
2018-04-24T12:04:06.139Z,6.73
2018-04-24T12:06:34.644Z,6.47
2018-04-24T12:09:03.131Z,6.50
2018-04-24T12:11:32.107Z,6.47
2018-04-24T12:14:00.396Z,6.47
2018-04-24T12:16:28.758Z,5.60
2018-04-24T12:18:57.592Z,5.93
2018-04-24T12:21:26.090Z,6.47
2018-04-24T12:23:54.517Z,6.20
2018-04-24T12:26:23.288Z,6.37
2018-04-24T12:28:53.172Z,5.80
2018-04-24T12:31:22.732Z,5.90
2018-04-24T12:33:52.736Z,5.63
2018-04-24T12:36:21.021Z,6.17
2018-04-24T12:38:49.616Z,5.67
2018-04-24T12:41:17.834Z,5.50
2018-04-24T12:43:46.244Z,5.93
2018-04-24T12:46:14.444Z,5.90
2018-04-24T12:48:43.459Z,6.23
2018-04-24T12:51:11.714Z,5.20
2018-04-24T12:53:40.829Z,5.63
2018-04-24T12:56:09.073Z,5.87
2018-04-24T12:58:37.336Z,5.13
2018-04-24T13:01:05.679Z,5.40
2018-04-24T13:03:33.899Z,5.57
2018-04-24T13:06:02.333Z,5.40
2018-04-24T13:08:30.645Z,5.00
2018-04-24T13:10:59.110Z,4.47
2018-04-24T13:13:27.551Z,4.53
2018-04-24T13:15:56.542Z,3.67
2018-04-24T13:18:24.856Z,4.17
2018-04-24T13:20:53.947Z,4.03
2018-04-24T13:23:22.173Z,3.10
2018-04-24T13:25:51.228Z,3.37
2018-04-24T13:28:19.424Z,3.20
2018-04-24T13:30:47.732Z,3.10
2018-04-24T13:33:16.063Z,3.33
2018-04-24T13:35:44.269Z,2.80
2018-04-24T13:38:13.316Z,2.50
2018-04-24T13:40:41.636Z,2.60
2018-04-24T13:43:11.166Z,2.63
2018-04-24T13:45:40.194Z,2.77
2018-04-24T13:48:08.500Z,2.50
2018-04-24T13:50:36.779Z,2.73
2018-04-24T13:53:05.169Z,2.50
2018-04-24T13:55:33.483Z,2.37
2018-04-24T13:58:02.552Z,2.17
2018-04-24T14:00:31.538Z,2.60
2018-04-24T14:02:59.901Z,2.40
2018-04-24T14:05:28.334Z,2.50
2018-04-24T14:07:56.608Z,2.40
2018-04-24T14:10:24.901Z,2.43
2018-04-24T14:12:53.227Z,2.90
2018-04-24T14:15:25.030Z,1.97
2018-04-24T14:17:54.114Z,1.63
2018-04-24T14:20:23.197Z,2.10
2018-04-24T14:22:51.405Z,1.97
2018-04-24T14:25:19.696Z,1.80
2018-04-24T14:27:48.004Z,2.20
2018-04-24T14:30:16.175Z,2.20
2018-04-24T14:32:44.385Z,2.33
2018-04-24T14:35:12.609Z,2.30
2018-04-24T14:37:40.831Z,2.27
2018-04-24T14:40:09.889Z,2.30
2018-04-24T14:42:38.281Z,2.00
2018-04-24T14:45:06.468Z,2.00
2018-04-24T14:47:35.052Z,2.10
2018-04-24T14:50:04.178Z,2.47
2018-04-24T14:52:32.512Z,2.30
2018-04-24T14:55:00.757Z,2.53
2018-04-24T14:57:28.992Z,2.70
2018-04-24T14:59:57.938Z,2.50
2018-04-24T15:02:26.208Z,2.50
2018-04-24T15:04:54.396Z,2.53
2018-04-24T15:07:22.605Z,3.20
2018-04-24T15:09:51.853Z,3.10
2018-04-24T15:12:20.135Z,3.27
2018-04-24T15:14:48.357Z,3.23
2018-04-24T15:17:17.459Z,3.03
2018-04-24T15:19:45.651Z,3.40
2018-04-24T15:22:13.867Z,3.50
2018-04-24T15:24:42.279Z,3.93
2018-04-24T15:27:10.617Z,4.00
2018-04-24T15:29:39.038Z,3.93
2018-04-24T15:32:09.255Z,3.47
2018-04-24T15:34:38.365Z,3.70
2018-04-24T15:37:06.640Z,3.30
2018-04-24T15:39:35.928Z,3.57
2018-04-24T15:42:04.220Z,3.50
2018-04-24T15:44:32.618Z,4.10
2018-04-24T15:47:00.967Z,3.30
2018-04-24T15:49:29.226Z,3.30
2018-04-24T15:51:58.292Z,3.40
2018-04-24T15:54:26.575Z,3.50
2018-04-24T15:56:54.822Z,3.27
2018-04-24T15:59:23.813Z,3.47
2018-04-24T16:01:52.075Z,3.60
2018-04-24T16:04:21.015Z,3.70
2018-04-24T16:06:49.364Z,3.50
2018-04-24T16:09:17.831Z,3.30
2018-04-24T16:11:46.240Z,4.00
2018-04-24T16:14:14.452Z,3.97
2018-04-24T16:16:42.955Z,4.50
2018-04-24T16:19:11.967Z,4.23
2018-04-24T16:21:40.292Z,4.10
2018-04-24T16:24:08.705Z,4.17
2018-04-24T16:26:36.963Z,4.50
2018-04-24T16:29:05.208Z,4.33
2018-04-24T16:31:33.632Z,4.40
2018-04-24T16:34:02.005Z,4.90
2018-04-24T16:36:30.483Z,4.30
2018-04-24T16:38:58.780Z,4.83
2018-04-24T16:41:27.002Z,4.87
2018-04-24T16:43:55.217Z,4.53
2018-04-24T16:46:25.586Z,4.30
2018-04-24T16:48:53.805Z,4.57
2018-04-24T16:51:22.040Z,4.50
2018-04-24T16:53:50.275Z,4.77
2018-04-24T16:56:18.472Z,4.60
2018-04-24T16:58:46.731Z,4.40
2018-04-24T17:01:15.121Z,4.50
2018-04-24T17:03:43.532Z,4.10
2018-04-24T17:06:12.700Z,4.20
2018-04-24T17:08:41.169Z,4.30
2018-04-24T17:11:10.979Z,4.20
2018-04-24T17:13:41.204Z,4.30
2018-04-24T17:16:10.384Z,4.50
2018-04-24T17:18:39.686Z,4.47
2018-04-24T17:21:08.163Z,4.90
2018-04-24T17:23:36.532Z,4.73
2018-04-24T17:26:04.997Z,4.57
2018-04-24T17:28:33.679Z,4.67
2018-04-24T17:31:01.978Z,5.07
2018-04-24T17:33:30.187Z,5.10
2018-04-24T17:35:58.710Z,4.70
2018-04-24T17:38:27.072Z,4.37
2018-04-24T17:40:55.435Z,4.67
2018-04-24T17:43:23.607Z,4.83
2018-04-24T17:45:51.895Z,4.90
2018-04-24T17:48:20.109Z,4.73
2018-04-24T17:50:49.315Z,4.60
2018-04-24T17:53:17.711Z,4.70
2018-04-24T17:55:46.268Z,4.70
2018-04-24T17:58:14.495Z,4.43
2018-04-24T18:00:43.797Z,4.90
2018-04-24T18:03:12.084Z,4.40
2018-04-24T18:05:41.336Z,4.40
2018-04-24T18:08:10.112Z,4.70
2018-04-24T18:10:38.339Z,4.50
2018-04-24T18:13:06.712Z,4.43
2018-04-24T18:15:34.965Z,4.27
2018-04-24T18:18:03.231Z,4.10
2018-04-24T18:20:31.417Z,4.13
2018-04-24T18:22:59.671Z,4.20
2018-04-24T18:25:27.918Z,4.60
2018-04-24T18:27:56.900Z,4.40
2018-04-24T18:30:26.103Z,4.50
2018-04-24T18:32:55.077Z,4.50
2018-04-24T18:35:23.393Z,4.27
2018-04-24T18:37:51.645Z,4.40
2018-04-24T18:40:19.963Z,4.80
2018-04-24T18:42:48.280Z,4.60
2018-04-24T18:45:16.483Z,4.47
2018-04-24T18:47:44.739Z,4.80
2018-04-24T18:50:13.438Z,4.23
2018-04-24T18:52:42.013Z,4.83
2018-04-24T18:55:10.294Z,4.77
2018-04-24T18:57:39.438Z,5.10
2018-04-24T19:00:07.717Z,4.97
2018-04-24T19:02:36.033Z,5.10
2018-04-24T19:05:04.271Z,5.23
2018-04-24T19:07:32.547Z,5.40
2018-04-24T19:10:00.908Z,5.43
2018-04-24T19:14:55.297Z,4.93
2018-04-24T19:17:23.535Z,5.30
2018-04-24T19:19:51.784Z,5.40
2018-04-24T19:22:19.987Z,5.50
2018-04-24T19:24:54.488Z,5.40
2018-04-24T19:27:22.699Z,6.07
2018-04-24T19:29:51.723Z,6.20
2018-04-24T19:32:25.669Z,5.37
2018-04-24T19:34:53.935Z,6.20
2018-04-24T19:37:22.202Z,6.10
2018-04-24T19:39:56.082Z,5.53
2018-04-24T19:42:24.329Z,5.97
2018-04-24T19:44:53.299Z,5.43
2018-04-24T19:47:21.708Z,4.80
2018-04-24T19:49:56.276Z,5.40
2018-04-24T19:52:24.995Z,5.57
2018-04-24T19:54:59.037Z,5.80
2018-04-24T19:57:28.530Z,6.57
2018-04-24T19:59:57.167Z,5.83
2018-04-24T20:02:25.785Z,6.33
2018-04-24T20:04:53.999Z,6.40
2018-04-24T20:07:22.971Z,5.60
2018-04-24T20:09:51.160Z,6.10
2018-04-24T20:12:20.664Z,6.10
2018-04-24T20:14:48.839Z,6.40
2018-04-24T20:17:17.902Z,6.20
2018-04-24T20:19:46.218Z,6.60
2018-04-24T20:22:15.239Z,6.40
2018-04-24T20:24:43.539Z,6.50
2018-04-24T20:27:11.766Z,6.70
2018-04-24T20:29:40.000Z,8.07
2018-04-24T20:32:08.203Z,7.13
2018-04-24T20:34:37.836Z,7.17
2018-04-24T20:37:06.863Z,6.77
2018-04-24T20:39:35.104Z,6.60
2018-04-24T20:42:03.344Z,6.83
2018-04-24T20:44:31.537Z,6.60
2018-04-24T20:47:00.496Z,6.60
2018-04-24T20:49:28.700Z,6.40
2018-04-24T20:51:57.710Z,7.10
2018-04-24T20:54:25.937Z,7.00
2018-04-24T20:56:54.241Z,7.30
2018-04-24T20:59:23.234Z,6.53
2018-04-24T21:01:51.454Z,6.60
2018-04-24T21:04:19.683Z,6.80
2018-04-24T21:06:48.743Z,8.47
2018-04-24T21:09:16.983Z,8.63
2018-04-24T21:11:45.307Z,8.30
2018-04-24T21:14:13.606Z,8.20
2018-04-24T21:16:42.058Z,7.67
2018-04-24T21:19:10.364Z,7.30
2018-04-24T21:21:39.379Z,8.40
2018-04-24T21:24:07.578Z,8.40
2018-04-24T21:26:35.841Z,7.97
2018-04-24T21:29:04.027Z,8.50
2018-04-24T21:31:32.234Z,7.67
2018-04-24T21:34:01.210Z,8.73
2018-04-24T21:36:29.452Z,8.97
2018-04-24T21:38:57.611Z,8.43
2018-04-24T21:41:26.732Z,8.60
2018-04-24T21:43:54.923Z,9.07
2018-04-24T21:46:23.488Z,7.87
2018-04-24T21:48:51.839Z,9.07
2018-04-24T21:51:20.812Z,8.87
2018-04-24T21:53:49.003Z,8.43
2018-04-24T21:56:18.004Z,9.07
2018-04-24T21:58:47.011Z,8.80
2018-04-24T22:01:15.200Z,8.90
2018-04-24T22:03:43.637Z,9.43
2018-04-24T22:06:11.854Z,9.57
2018-04-24T22:08:40.085Z,9.47
2018-04-24T22:11:08.515Z,9.30
2018-04-24T22:13:36.719Z,8.40
2018-04-24T22:16:05.034Z,8.33
2018-04-24T22:18:34.163Z,9.17
2018-04-24T22:21:02.474Z,8.90
2018-04-24T22:23:31.791Z,9.20
2018-04-24T22:26:00.183Z,9.00
2018-04-24T22:28:29.191Z,8.70
2018-04-24T22:30:57.436Z,8.80
2018-04-24T22:33:25.669Z,8.90
2018-04-24T22:35:53.865Z,9.07
2018-04-24T22:38:22.067Z,8.80
2018-04-24T22:40:50.287Z,8.97
2018-04-24T22:43:18.496Z,8.60
2018-04-24T22:45:46.742Z,8.50
2018-04-24T22:48:14.975Z,8.90
2018-04-24T22:50:43.939Z,9.80
2018-04-24T22:53:12.190Z,9.60
2018-04-24T22:55:40.643Z,9.30
2018-04-24T22:58:08.839Z,9.70
2018-04-24T23:00:37.103Z,9.30
2018-04-24T23:03:05.407Z,9.80
2018-04-24T23:05:33.610Z,9.20
2018-04-24T23:08:01.939Z,9.10
2018-04-24T23:10:42.255Z,9.00
2018-04-24T23:13:23.343Z,9.93
2018-04-24T23:16:04.177Z,9.83
2018-04-24T23:18:44.213Z,9.63
2018-04-24T23:21:11.963Z,10.30
2018-04-24T23:23:40.211Z,9.23
2018-04-24T23:26:09.199Z,9.60
2018-04-24T23:28:38.392Z,10.13
2018-04-24T23:31:07.364Z,10.30
2018-04-24T23:33:35.593Z,9.87
2018-04-24T23:36:04.643Z,10.60
2018-04-24T23:38:33.167Z,9.80
2018-04-24T23:41:01.428Z,9.70
2018-04-24T23:43:30.496Z,10.40
2018-04-24T23:45:58.711Z,10.03
2018-04-24T23:48:26.936Z,9.40
2018-04-24T23:50:55.180Z,10.40
2018-04-24T23:53:23.377Z,9.73
2018-04-24T23:55:51.607Z,9.70
2018-04-24T23:58:19.965Z,10.13
